PWSweather.com
Personal Weather Stations
Station Observations
KOHCLEVE171
Cleveland, OH

Cleveland, OH

Lat: 41.48646164, Lon: -81.46408081

Elevation: 1059

Station Type:

High Low Average
Temperature 37.9°F3.3°C 24.1°F-4.4°C 28.4°F-2.0°C
Dew Point 30.9°F-0.6°C 16.3°F-8.7°C 23.2°F-4.9°C
Winds 6.7 mph 10.8 kmh 1.1 mph 1.8 kmh 3.0 mph WSW4.8 kmh WSW
Wind Gusts 19.2 mph30.9 kmh 2.0 mph3.2 kmh 6.0 mph9.7 kmh
Humidity 94% 70% 81%
Pressure 30.10 in1019.3 mb 29.84 in1010.5 mb -
Precipitation 0.04 in1.0 mm - -
Hour Temp Dew Point Humidity Winds Wind Gusts Pressure Precip Precip Rate Daily Precip Total
12:04 AM 39.2°F4.0°C 32.5°F0.3°C 77% 3.8 mph SW6.1 kmh SW 7.8 mph12.6 kmh 29.83 in1010.2 mb 0.00 in0.0 mm 0.00 in0.0 mm 0.70 in17.8 mm
12:09 AM 39.2°F4.0°C 32.5°F0.3°C 77% 2.0 mph N3.2 kmh N 6.9 mph11.1 kmh 29.83 in1010.2 mb 0.00 in0.0 mm 0.00 in0.0 mm 0.70 in17.8 mm
12:14 AM 39.2°F4.0°C 32.5°F0.3°C 77% 3.8 mph W6.1 kmh W 6.7 mph10.8 kmh 29.83 in1010.2 mb 0.00 in0.0 mm 0.00 in0.0 mm 0.70 in17.8 mm
12:19 AM 39.2°F4.0°C 32.4°F0.2°C 76% 4.5 mph NW7.2 kmh NW 10.5 mph16.9 kmh 29.83 in1010.2 mb 0.00 in0.0 mm 0.00 in0.0 mm 0.70 in17.8 mm
12:24 AM 39.2°F4.0°C 32.4°F0.2°C 76% 3.8 mph WSW6.1 kmh WSW 7.4 mph11.9 kmh 29.83 in1010.2 mb 0.00 in0.0 mm 0.00 in0.0 mm 0.70 in17.8 mm
12:29 AM 39.0°F3.9°C 32.2°F0.1°C 76% 4.5 mph NNW7.2 kmh NNW 11.0 mph17.7 kmh 29.84 in1010.5 mb 0.00 in0.0 mm 0.00 in0.0 mm 0.70 in17.8 mm
12:34 AM 39.0°F3.9°C 32.2°F0.1°C 76% 2.7 mph W4.3 kmh W 7.6 mph12.2 kmh 29.84 in1010.5 mb 0.00 in0.0 mm 0.00 in0.0 mm 0.70 in17.8 mm
12:39 AM 39.0°F3.9°C 32.2°F0.1°C 76% 3.6 mph NW5.8 kmh NW 7.6 mph12.2 kmh 29.84 in1010.5 mb 0.00 in0.0 mm 0.00 in0.0 mm 0.70 in17.8 mm
12:44 AM 38.8°F3.8°C 31.6°F-0.2°C 75% 5.4 mph NNW8.7 kmh NNW 8.9 mph14.3 kmh 29.84 in1010.5 mb 0.00 in0.0 mm 0.00 in0.0 mm 0.70 in17.8 mm
12:49 AM 38.7°F3.7°C 31.5°F-0.3°C 75% 5.1 mph N8.2 kmh N 10.5 mph16.9 kmh 29.84 in1010.5 mb 0.00 in0.0 mm 0.00 in0.0 mm 0.70 in17.8 mm
12:54 AM 38.5°F3.6°C 30.9°F-0.6°C 74% 4.9 mph NW7.9 kmh NW 15.9 mph25.6 kmh 29.84 in1010.5 mb 0.00 in0.0 mm 0.00 in0.0 mm 0.70 in17.8 mm
01:04 AM 37.9°F3.3°C 30.4°F-0.9°C 74% 3.8 mph WSW6.1 kmh WSW 8.7 mph14.0 kmh 29.84 in1010.5 mb 0.00 in0.0 mm 0.00 in0.0 mm 0.00 in0.0 mm
01:09 AM 37.9°F3.3°C 30.4°F-0.9°C 74% 3.4 mph N5.5 kmh N 5.8 mph9.3 kmh 29.84 in1010.5 mb 0.00 in0.0 mm 0.00 in0.0 mm 0.00 in0.0 mm
01:14 AM 37.8°F3.2°C 30.2°F-1.0°C 74% 3.1 mph N5.0 kmh N 7.6 mph12.2 kmh 29.84 in1010.5 mb 0.00 in0.0 mm 0.00 in0.0 mm 0.00 in0.0 mm
01:19 AM 37.6°F3.1°C 30.0°F-1.1°C 74% 6.7 mph NW10.8 kmh NW 11.2 mph18.0 kmh 29.84 in1010.5 mb 0.00 in0.0 mm 0.00 in0.0 mm 0.00 in0.0 mm
01:24 AM 37.4°F3.0°C 30.2°F-1.0°C 75% 2.2 mph N3.5 kmh N 6.7 mph10.8 kmh 29.84 in1010.5 mb 0.00 in0.0 mm 0.00 in0.0 mm 0.00 in0.0 mm
01:29 AM 37.2°F2.9°C 30.4°F-0.9°C 76% 4.5 mph NW7.2 kmh NW 7.4 mph11.9 kmh 29.84 in1010.5 mb 0.00 in0.0 mm 0.00 in0.0 mm 0.00 in0.0 mm
01:34 AM 36.9°F2.7°C 30.4°F-0.9°C 77% 4.0 mph NW6.4 kmh NW 11.6 mph18.7 kmh 29.85 in1010.8 mb 0.00 in0.0 mm 0.00 in0.0 mm 0.00 in0.0 mm
01:39 AM 36.7°F2.6°C 30.2°F-1.0°C 77% 6.5 mph NW10.5 kmh NW 11.0 mph17.7 kmh 29.85 in1010.8 mb 0.00 in0.0 mm 0.00 in0.0 mm 0.00 in0.0 mm
01:44 AM 36.5°F2.5°C 30.9°F-0.6°C 80% 3.6 mph NNW5.8 kmh NNW 6.3 mph10.1 kmh 29.85 in1010.8 mb 0.01 in0.3 mm 0.12 in3.0 mm 0.01 in0.3 mm
01:49 AM 36.3°F2.4°C 30.7°F-0.7°C 80% 5.8 mph N9.3 kmh N 7.6 mph12.2 kmh 29.85 in1010.8 mb 0.01 in0.3 mm 0.00 in0.0 mm 0.01 in0.3 mm
01:54 AM 36.1°F2.3°C 30.9°F-0.6°C 81% 2.5 mph N4.0 kmh N 8.7 mph14.0 kmh 29.85 in1010.8 mb 0.01 in0.3 mm 0.00 in0.0 mm 0.01 in0.3 mm
01:59 AM 35.8°F2.1°C 30.6°F-0.8°C 81% 2.9 mph NW4.7 kmh NW 6.0 mph9.7 kmh 29.85 in1010.8 mb 0.01 in0.3 mm 0.00 in0.0 mm 0.01 in0.3 mm
02:04 AM 35.8°F2.1°C 30.6°F-0.8°C 81% 4.5 mph W7.2 kmh W 10.1 mph16.3 kmh 29.85 in1010.8 mb 0.01 in0.3 mm 0.00 in0.0 mm 0.01 in0.3 mm
02:09 AM 35.8°F2.1°C 30.6°F-0.8°C 81% 3.8 mph N6.1 kmh N 8.5 mph13.7 kmh 29.85 in1010.8 mb 0.01 in0.3 mm 0.00 in0.0 mm 0.01 in0.3 mm
02:14 AM 35.6°F2.0°C 30.4°F-0.9°C 81% 2.5 mph NNW4.0 kmh NNW 4.3 mph6.9 kmh 29.85 in1010.8 mb 0.01 in0.3 mm 0.00 in0.0 mm 0.01 in0.3 mm
02:19 AM 35.6°F2.0°C 30.4°F-0.9°C 81% 3.6 mph NW5.8 kmh NW 8.7 mph14.0 kmh 29.85 in1010.8 mb 0.01 in0.3 mm 0.00 in0.0 mm 0.01 in0.3 mm
02:24 AM 35.6°F2.0°C 30.0°F-1.1°C 80% 5.6 mph NNW9.0 kmh NNW 9.8 mph15.8 kmh 29.85 in1010.8 mb 0.01 in0.3 mm 0.00 in0.0 mm 0.01 in0.3 mm
02:29 AM 35.6°F2.0°C 30.4°F-0.9°C 81% 2.5 mph N4.0 kmh N 3.6 mph5.8 kmh 29.85 in1010.8 mb 0.01 in0.3 mm 0.00 in0.0 mm 0.01 in0.3 mm
02:34 AM 35.6°F2.0°C 30.0°F-1.1°C 80% 2.5 mph NNW4.0 kmh NNW 7.6 mph12.2 kmh 29.85 in1010.8 mb 0.01 in0.3 mm 0.00 in0.0 mm 0.01 in0.3 mm
02:39 AM 35.8°F2.1°C 30.2°F-1.0°C 80% 2.2 mph NW3.5 kmh NW 5.6 mph9.0 kmh 29.85 in1010.8 mb 0.00 in0.0 mm 0.00 in0.0 mm 0.01 in0.3 mm
02:44 AM 35.6°F2.0°C 30.0°F-1.1°C 80% 2.2 mph NW3.5 kmh NW 4.9 mph7.9 kmh 29.85 in1010.8 mb 0.00 in0.0 mm 0.00 in0.0 mm 0.01 in0.3 mm
02:49 AM 35.6°F2.0°C 30.0°F-1.1°C 80% 2.5 mph NNW4.0 kmh NNW 6.3 mph10.1 kmh 29.85 in1010.8 mb 0.00 in0.0 mm 0.00 in0.0 mm 0.01 in0.3 mm
02:54 AM 35.6°F2.0°C 29.7°F-1.3°C 79% 4.0 mph NNW6.4 kmh NNW 5.8 mph9.3 kmh 29.85 in1010.8 mb 0.00 in0.0 mm 0.00 in0.0 mm 0.01 in0.3 mm
02:59 AM 35.6°F2.0°C 29.7°F-1.3°C 79% 4.7 mph N7.6 kmh N 8.5 mph13.7 kmh 29.85 in1010.8 mb 0.00 in0.0 mm 0.00 in0.0 mm 0.01 in0.3 mm
03:04 AM 35.4°F1.9°C 29.8°F-1.2°C 80% 1.8 mph 2.9 kmh 4.7 mph7.6 kmh 29.86 in1011.2 mb 0.00 in0.0 mm 0.00 in0.0 mm 0.01 in0.3 mm
03:09 AM 35.4°F1.9°C 29.8°F-1.2°C 80% 4.9 mph WSW7.9 kmh WSW 9.4 mph15.1 kmh 29.85 in1010.8 mb 0.00 in0.0 mm 0.00 in0.0 mm 0.01 in0.3 mm
03:14 AM 35.2°F1.8°C 30.0°F-1.1°C 81% 4.3 mph NW6.9 kmh NW 7.6 mph12.2 kmh 29.86 in1011.2 mb 0.00 in0.0 mm 0.00 in0.0 mm 0.01 in0.3 mm
03:19 AM 35.2°F1.8°C 30.0°F-1.1°C 81% 3.6 mph NNW5.8 kmh NNW 5.6 mph9.0 kmh 29.86 in1011.2 mb 0.00 in0.0 mm 0.00 in0.0 mm 0.01 in0.3 mm
03:24 AM 35.1°F1.7°C 29.8°F-1.2°C 81% 2.2 mph N3.5 kmh N 3.1 mph5.0 kmh 29.86 in1011.2 mb 0.00 in0.0 mm 0.00 in0.0 mm 0.01 in0.3 mm
03:29 AM 34.9°F1.6°C 30.0°F-1.1°C 82% 5.1 mph N8.2 kmh N 8.7 mph14.0 kmh 29.87 in1011.5 mb 0.00 in0.0 mm 0.00 in0.0 mm 0.01 in0.3 mm
03:34 AM 34.9°F1.6°C 29.7°F-1.3°C 81% 3.1 mph N5.0 kmh N 4.3 mph6.9 kmh 29.86 in1011.2 mb 0.00 in0.0 mm 0.00 in0.0 mm 0.01 in0.3 mm
03:39 AM 34.7°F1.5°C 29.5°F-1.4°C 81% 3.8 mph N6.1 kmh N 7.8 mph12.6 kmh 29.87 in1011.5 mb 0.00 in0.0 mm 0.00 in0.0 mm 0.01 in0.3 mm
03:44 AM 34.7°F1.5°C 29.5°F-1.4°C 81% 2.5 mph N4.0 kmh N 4.3 mph6.9 kmh 29.87 in1011.5 mb 0.00 in0.0 mm 0.00 in0.0 mm 0.01 in0.3 mm
03:49 AM 34.5°F1.4°C 29.7°F-1.3°C 82% 3.6 mph NNW5.8 kmh NNW 7.2 mph11.6 kmh 29.87 in1011.5 mb 0.00 in0.0 mm 0.00 in0.0 mm 0.01 in0.3 mm
03:54 AM 34.3°F1.3°C 30.0°F-1.1°C 84% 3.6 mph N5.8 kmh N 10.7 mph17.2 kmh 29.87 in1011.5 mb 0.00 in0.0 mm 0.00 in0.0 mm 0.01 in0.3 mm
03:59 AM 34.2°F1.2°C 30.2°F-1.0°C 85% 4.7 mph N7.6 kmh N 7.6 mph12.2 kmh 29.87 in1011.5 mb 0.00 in0.0 mm 0.00 in0.0 mm 0.01 in0.3 mm
04:04 AM 34.0°F1.1°C 30.2°F-1.0°C 86% 2.9 mph N4.7 kmh N 6.3 mph10.1 kmh 29.87 in1011.5 mb 0.00 in0.0 mm 0.00 in0.0 mm 0.01 in0.3 mm
04:09 AM 34.0°F1.1°C 30.0°F-1.1°C 85% 2.9 mph N4.7 kmh N 6.7 mph10.8 kmh 29.87 in1011.5 mb 0.00 in0.0 mm 0.00 in0.0 mm 0.01 in0.3 mm
04:14 AM 33.8°F1.0°C 29.8°F-1.2°C 85% 4.0 mph N6.4 kmh N 5.6 mph9.0 kmh 29.87 in1011.5 mb 0.00 in0.0 mm 0.00 in0.0 mm 0.01 in0.3 mm
04:19 AM 33.6°F0.9°C 29.7°F-1.3°C 85% 1.6 mph N2.6 kmh N 2.9 mph4.7 kmh 29.87 in1011.5 mb 0.00 in0.0 mm 0.00 in0.0 mm 0.01 in0.3 mm
04:24 AM 33.6°F0.9°C 29.7°F-1.3°C 85% 4.5 mph N7.2 kmh N 6.9 mph11.1 kmh 29.87 in1011.5 mb 0.00 in0.0 mm 0.00 in0.0 mm 0.01 in0.3 mm
04:29 AM 33.6°F0.9°C 29.8°F-1.2°C 86% 2.5 mph NW4.0 kmh NW 4.9 mph7.9 kmh 29.86 in1011.2 mb 0.00 in0.0 mm 0.00 in0.0 mm 0.01 in0.3 mm
04:34 AM 33.6°F0.9°C 29.8°F-1.2°C 86% 2.7 mph N4.3 kmh N 4.7 mph7.6 kmh 29.86 in1011.2 mb 0.00 in0.0 mm 0.00 in0.0 mm 0.01 in0.3 mm
04:39 AM 33.6°F0.9°C 29.8°F-1.2°C 86% 3.8 mph N6.1 kmh N 5.6 mph9.0 kmh 29.87 in1011.5 mb 0.00 in0.0 mm 0.00 in0.0 mm 0.01 in0.3 mm
04:44 AM 33.6°F0.9°C 29.8°F-1.2°C 86% 2.7 mph N4.3 kmh N 5.4 mph8.7 kmh 29.87 in1011.5 mb 0.00 in0.0 mm 0.00 in0.0 mm 0.01 in0.3 mm
04:49 AM 33.4°F0.8°C 30.0°F-1.1°C 87% 1.8 mph N2.9 kmh N 3.6 mph5.8 kmh 29.86 in1011.2 mb 0.00 in0.0 mm 0.00 in0.0 mm 0.01 in0.3 mm
04:54 AM 33.4°F0.8°C 30.6°F-0.8°C 89% 2.5 mph N4.0 kmh N 5.6 mph9.0 kmh 29.86 in1011.2 mb 0.00 in0.0 mm 0.00 in0.0 mm 0.01 in0.3 mm
04:59 AM 33.3°F0.7°C 30.4°F-0.9°C 89% 1.1 mph N1.8 kmh N 2.0 mph3.2 kmh 29.86 in1011.2 mb 0.00 in0.0 mm 0.00 in0.0 mm 0.01 in0.3 mm
05:04 AM 33.1°F0.6°C 30.4°F-0.9°C 90% 2.5 mph N4.0 kmh N 2.9 mph4.7 kmh 29.86 in1011.2 mb 0.00 in0.0 mm 0.00 in0.0 mm 0.01 in0.3 mm
05:09 AM 33.1°F0.6°C 30.2°F-1.0°C 89% 2.0 mph N3.2 kmh N 3.6 mph5.8 kmh 29.86 in1011.2 mb 0.00 in0.0 mm 0.00 in0.0 mm 0.01 in0.3 mm
05:14 AM 32.9°F0.5°C 30.0°F-1.1°C 89% 3.6 mph N5.8 kmh N 5.8 mph9.3 kmh 29.86 in1011.2 mb 0.00 in0.0 mm 0.00 in0.0 mm 0.01 in0.3 mm
05:19 AM 32.5°F0.3°C 29.7°F-1.3°C 89% 5.1 mph N8.2 kmh N 7.6 mph12.2 kmh 29.86 in1011.2 mb 0.00 in0.0 mm 0.00 in0.0 mm 0.01 in0.3 mm
05:24 AM 32.4°F0.2°C 29.5°F-1.4°C 89% 4.7 mph N7.6 kmh N 6.7 mph10.8 kmh 29.86 in1011.2 mb 0.00 in0.0 mm 0.00 in0.0 mm 0.01 in0.3 mm
05:29 AM 32.4°F0.2°C 29.5°F-1.4°C 89% 2.7 mph N4.3 kmh N 4.3 mph6.9 kmh 29.85 in1010.8 mb 0.00 in0.0 mm 0.00 in0.0 mm 0.01 in0.3 mm
05:34 AM 32.4°F0.2°C 29.5°F-1.4°C 89% 4.0 mph N6.4 kmh N 7.6 mph12.2 kmh 29.85 in1010.8 mb 0.00 in0.0 mm 0.00 in0.0 mm 0.01 in0.3 mm
05:39 AM 32.4°F0.2°C 29.5°F-1.4°C 89% 3.6 mph NNW5.8 kmh NNW 6.9 mph11.1 kmh 29.86 in1011.2 mb 0.00 in0.0 mm 0.00 in0.0 mm 0.01 in0.3 mm
05:44 AM 32.2°F0.1°C 29.3°F-1.5°C 89% 5.6 mph N9.0 kmh N 7.2 mph11.6 kmh 29.86 in1011.2 mb 0.00 in0.0 mm 0.00 in0.0 mm 0.01 in0.3 mm
05:49 AM 31.8°F-0.1°C 28.9°F-1.7°C 89% 4.0 mph N6.4 kmh N 6.7 mph10.8 kmh 29.86 in1011.2 mb 0.00 in0.0 mm 0.00 in0.0 mm 0.01 in0.3 mm
05:54 AM 31.8°F-0.1°C 28.9°F-1.7°C 89% 3.4 mph N5.5 kmh N 5.6 mph9.0 kmh 29.86 in1011.2 mb 0.00 in0.0 mm 0.00 in0.0 mm 0.01 in0.3 mm
05:59 AM 32.0°F0.0°C 29.1°F-1.6°C 89% 3.6 mph NNW5.8 kmh NNW 5.4 mph8.7 kmh 29.86 in1011.2 mb 0.00 in0.0 mm 0.00 in0.0 mm 0.01 in0.3 mm
06:04 AM 31.8°F-0.1°C 28.9°F-1.7°C 89% 3.1 mph N5.0 kmh N 4.7 mph7.6 kmh 29.86 in1011.2 mb 0.00 in0.0 mm 0.00 in0.0 mm 0.01 in0.3 mm
06:09 AM 31.8°F-0.1°C 28.9°F-1.7°C 89% 2.9 mph 4.7 kmh 3.8 mph6.1 kmh 29.86 in1011.2 mb 0.00 in0.0 mm 0.00 in0.0 mm 0.01 in0.3 mm
06:24 AM 31.5°F-0.3°C 28.9°F-1.7°C 90% 2.5 mph N4.0 kmh N 4.0 mph6.4 kmh 29.87 in1011.5 mb 0.01 in0.3 mm 0.04 in1.0 mm 0.02 in0.5 mm
06:29 AM 31.5°F-0.3°C 29.1°F-1.6°C 91% 3.4 mph N5.5 kmh N 5.4 mph8.7 kmh 29.87 in1011.5 mb 0.01 in0.3 mm 0.00 in0.0 mm 0.02 in0.5 mm
06:34 AM 31.5°F-0.3°C 29.1°F-1.6°C 91% 2.7 mph N4.3 kmh N 3.8 mph6.1 kmh 29.87 in1011.5 mb 0.01 in0.3 mm 0.00 in0.0 mm 0.02 in0.5 mm
06:39 AM 31.3°F-0.4°C 29.5°F-1.4°C 93% 1.8 mph NW2.9 kmh NW 4.3 mph6.9 kmh 29.87 in1011.5 mb 0.01 in0.3 mm 0.00 in0.0 mm 0.02 in0.5 mm
06:44 AM 31.1°F-0.5°C 29.3°F-1.5°C 93% 3.1 mph N5.0 kmh N 5.1 mph8.2 kmh 29.87 in1011.5 mb 0.01 in0.3 mm 0.00 in0.0 mm 0.02 in0.5 mm
06:49 AM 30.9°F-0.6°C 29.1°F-1.6°C 93% 3.8 mph N6.1 kmh N 5.6 mph9.0 kmh 29.88 in1011.9 mb 0.01 in0.3 mm 0.00 in0.0 mm 0.02 in0.5 mm
06:54 AM 30.6°F-0.8°C 29.1°F-1.6°C 94% 5.4 mph N8.7 kmh N 7.8 mph12.6 kmh 29.88 in1011.9 mb 0.01 in0.3 mm 0.00 in0.0 mm 0.02 in0.5 mm
06:59 AM 30.4°F-0.9°C 28.9°F-1.7°C 94% 4.0 mph N6.4 kmh N 5.4 mph8.7 kmh 29.88 in1011.9 mb 0.01 in0.3 mm 0.00 in0.0 mm 0.02 in0.5 mm
07:04 AM 30.2°F-1.0°C 28.8°F-1.8°C 94% 3.1 mph N5.0 kmh N 4.5 mph7.2 kmh 29.88 in1011.9 mb 0.01 in0.3 mm 0.00 in0.0 mm 0.02 in0.5 mm
07:09 AM 30.0°F-1.1°C 28.6°F-1.9°C 94% 4.7 mph N7.6 kmh N 7.2 mph11.6 kmh 29.88 in1011.9 mb 0.01 in0.3 mm 0.00 in0.0 mm 0.02 in0.5 mm
07:14 AM 29.7°F-1.3°C 28.2°F-2.1°C 94% 4.9 mph NNW7.9 kmh NNW 9.4 mph15.1 kmh 29.88 in1011.9 mb 0.00 in0.0 mm 0.00 in0.0 mm 0.02 in0.5 mm
07:19 AM 29.5°F-1.4°C 28.0°F-2.2°C 94% 6.0 mph NNW9.7 kmh NNW 9.4 mph15.1 kmh 29.89 in1012.2 mb 0.00 in0.0 mm 0.00 in0.0 mm 0.02 in0.5 mm
07:24 AM 29.5°F-1.4°C 27.7°F-2.4°C 93% 4.3 mph NNW6.9 kmh NNW 6.7 mph10.8 kmh 29.89 in1012.2 mb 0.00 in0.0 mm 0.00 in0.0 mm 0.02 in0.5 mm
07:29 AM 29.5°F-1.4°C 27.7°F-2.4°C 93% 3.6 mph N5.8 kmh N 4.7 mph7.6 kmh 29.89 in1012.2 mb 0.00 in0.0 mm 0.00 in0.0 mm 0.02 in0.5 mm
07:34 AM 29.5°F-1.4°C 27.1°F-2.7°C 91% 3.4 mph 5.5 kmh 5.6 mph9.0 kmh 29.89 in1012.2 mb 0.00 in0.0 mm 0.00 in0.0 mm 0.02 in0.5 mm
07:39 AM 29.5°F-1.4°C 27.0°F-2.8°C 90% 5.4 mph N8.7 kmh N 11.4 mph18.3 kmh 29.89 in1012.2 mb 0.00 in0.0 mm 0.00 in0.0 mm 0.02 in0.5 mm
07:44 AM 29.5°F-1.4°C 26.6°F-3.0°C 89% 3.1 mph NE5.0 kmh NE 5.1 mph8.2 kmh 29.89 in1012.2 mb 0.00 in0.0 mm 0.00 in0.0 mm 0.02 in0.5 mm
07:49 AM 29.3°F-1.5°C 26.4°F-3.1°C 89% 3.1 mph N5.0 kmh N 4.7 mph7.6 kmh 29.89 in1012.2 mb 0.00 in0.0 mm 0.00 in0.0 mm 0.02 in0.5 mm
07:54 AM 29.3°F-1.5°C 26.4°F-3.1°C 89% 2.7 mph N4.3 kmh N 3.4 mph5.5 kmh 29.89 in1012.2 mb 0.00 in0.0 mm 0.00 in0.0 mm 0.02 in0.5 mm
07:59 AM 29.5°F-1.4°C 26.6°F-3.0°C 89% 1.8 mph N2.9 kmh N 4.0 mph6.4 kmh 29.89 in1012.2 mb 0.00 in0.0 mm 0.00 in0.0 mm 0.02 in0.5 mm
08:04 AM 29.7°F-1.3°C 26.8°F-2.9°C 89% 3.4 mph N5.5 kmh N 7.8 mph12.6 kmh 29.90 in1012.5 mb 0.00 in0.0 mm 0.00 in0.0 mm 0.02 in0.5 mm
08:09 AM 29.8°F-1.2°C 27.0°F-2.8°C 89% 1.3 mph SW2.1 kmh SW 4.5 mph7.2 kmh 29.90 in1012.5 mb 0.00 in0.0 mm 0.00 in0.0 mm 0.02 in0.5 mm
08:14 AM 30.0°F-1.1°C 27.1°F-2.7°C 89% 2.7 mph N4.3 kmh N 7.2 mph11.6 kmh 29.90 in1012.5 mb 0.00 in0.0 mm 0.00 in0.0 mm 0.02 in0.5 mm
08:19 AM 30.0°F-1.1°C 26.6°F-3.0°C 87% 1.3 mph ESE2.1 kmh ESE 3.6 mph5.8 kmh 29.90 in1012.5 mb 0.00 in0.0 mm 0.00 in0.0 mm 0.02 in0.5 mm
08:24 AM 30.0°F-1.1°C 26.6°F-3.0°C 87% 1.3 mph NE2.1 kmh NE 2.7 mph4.3 kmh 29.90 in1012.5 mb 0.00 in0.0 mm 0.00 in0.0 mm 0.02 in0.5 mm
08:29 AM 30.2°F-1.0°C 26.6°F-3.0°C 86% 1.6 mph WNW2.6 kmh WNW 2.7 mph4.3 kmh 29.90 in1012.5 mb 0.00 in0.0 mm 0.00 in0.0 mm 0.02 in0.5 mm
08:34 AM 30.4°F-0.9°C 26.4°F-3.1°C 85% 1.1 mph N1.8 kmh N 2.9 mph4.7 kmh 29.90 in1012.5 mb 0.00 in0.0 mm 0.00 in0.0 mm 0.02 in0.5 mm
08:39 AM 30.4°F-0.9°C 26.1°F-3.3°C 84% 2.0 mph NW3.2 kmh NW 6.3 mph10.1 kmh 29.90 in1012.5 mb 0.00 in0.0 mm 0.00 in0.0 mm 0.02 in0.5 mm
08:44 AM 30.2°F-1.0°C 25.3°F-3.7°C 82% 3.4 mph NW5.5 kmh NW 6.7 mph10.8 kmh 29.91 in1012.9 mb 0.00 in0.0 mm 0.00 in0.0 mm 0.02 in0.5 mm
08:49 AM 30.2°F-1.0°C 25.9°F-3.4°C 84% 2.5 mph WNW4.0 kmh WNW 6.0 mph9.7 kmh 29.91 in1012.9 mb 0.00 in0.0 mm 0.00 in0.0 mm 0.02 in0.5 mm
08:54 AM 30.0°F-1.1°C 25.2°F-3.8°C 82% 4.5 mph N7.2 kmh N 6.7 mph10.8 kmh 29.91 in1012.9 mb 0.00 in0.0 mm 0.00 in0.0 mm 0.02 in0.5 mm
08:59 AM 29.8°F-1.2°C 25.5°F-3.6°C 84% 3.8 mph NW6.1 kmh NW 8.5 mph13.7 kmh 29.91 in1012.9 mb 0.00 in0.0 mm 0.00 in0.0 mm 0.02 in0.5 mm
09:04 AM 29.8°F-1.2°C 25.5°F-3.6°C 84% 3.6 mph NNW5.8 kmh NNW 8.3 mph13.4 kmh 29.91 in1012.9 mb 0.00 in0.0 mm 0.00 in0.0 mm 0.02 in0.5 mm
09:09 AM 29.7°F-1.3°C 24.8°F-4.0°C 82% 5.4 mph N8.7 kmh N 7.6 mph12.2 kmh 29.91 in1012.9 mb 0.00 in0.0 mm 0.00 in0.0 mm 0.02 in0.5 mm
09:14 AM 29.7°F-1.3°C 25.3°F-3.7°C 84% 4.0 mph N6.4 kmh N 6.0 mph9.7 kmh 29.92 in1013.2 mb 0.00 in0.0 mm 0.00 in0.0 mm 0.02 in0.5 mm
09:19 AM 29.7°F-1.3°C 25.3°F-3.7°C 84% 3.1 mph N5.0 kmh N 4.9 mph7.9 kmh 29.92 in1013.2 mb 0.00 in0.0 mm 0.00 in0.0 mm 0.02 in0.5 mm
09:24 AM 29.5°F-1.4°C 25.2°F-3.8°C 84% 4.5 mph N7.2 kmh N 8.3 mph13.4 kmh 29.92 in1013.2 mb 0.00 in0.0 mm 0.00 in0.0 mm 0.02 in0.5 mm
09:29 AM 29.8°F-1.2°C 25.0°F-3.9°C 82% 3.4 mph N5.5 kmh N 6.9 mph11.1 kmh 29.92 in1013.2 mb 0.00 in0.0 mm 0.00 in0.0 mm 0.02 in0.5 mm
09:34 AM 29.7°F-1.3°C 24.8°F-4.0°C 82% 4.3 mph N6.9 kmh N 6.3 mph10.1 kmh 29.92 in1013.2 mb 0.00 in0.0 mm 0.00 in0.0 mm 0.02 in0.5 mm
09:39 AM 29.7°F-1.3°C 25.3°F-3.7°C 84% 2.9 mph N4.7 kmh N 5.6 mph9.0 kmh 29.92 in1013.2 mb 0.00 in0.0 mm 0.00 in0.0 mm 0.02 in0.5 mm
09:44 AM 29.5°F-1.4°C 25.5°F-3.6°C 85% 3.1 mph N5.0 kmh N 5.4 mph8.7 kmh 29.93 in1013.5 mb 0.00 in0.0 mm 0.00 in0.0 mm 0.02 in0.5 mm
09:49 AM 29.5°F-1.4°C 25.9°F-3.4°C 86% 3.6 mph NNW5.8 kmh NNW 5.6 mph9.0 kmh 29.93 in1013.5 mb 0.00 in0.0 mm 0.00 in0.0 mm 0.02 in0.5 mm
09:54 AM 29.5°F-1.4°C 25.9°F-3.4°C 86% 3.8 mph N6.1 kmh N 8.5 mph13.7 kmh 29.93 in1013.5 mb 0.00 in0.0 mm 0.00 in0.0 mm 0.02 in0.5 mm
09:59 AM 29.3°F-1.5°C 25.7°F-3.5°C 86% 4.5 mph N7.2 kmh N 8.9 mph14.3 kmh 29.93 in1013.5 mb 0.01 in0.3 mm 0.12 in3.0 mm 0.03 in0.8 mm
10:04 AM 29.3°F-1.5°C 25.9°F-3.4°C 87% 3.8 mph NNW6.1 kmh NNW 10.3 mph16.6 kmh 29.94 in1013.9 mb 0.01 in0.3 mm 0.00 in0.0 mm 0.03 in0.8 mm
10:09 AM 29.3°F-1.5°C 25.7°F-3.5°C 86% 2.5 mph N4.0 kmh N 4.7 mph7.6 kmh 29.94 in1013.9 mb 0.01 in0.3 mm 0.00 in0.0 mm 0.03 in0.8 mm
10:14 AM 29.5°F-1.4°C 25.9°F-3.4°C 86% 3.6 mph NNW5.8 kmh NNW 6.9 mph11.1 kmh 29.94 in1013.9 mb 0.01 in0.3 mm 0.00 in0.0 mm 0.03 in0.8 mm
10:19 AM 29.5°F-1.4°C 25.2°F-3.8°C 84% 2.7 mph NNW4.3 kmh NNW 5.6 mph9.0 kmh 29.94 in1013.9 mb 0.01 in0.3 mm 0.00 in0.0 mm 0.03 in0.8 mm
10:24 AM 29.3°F-1.5°C 25.0°F-3.9°C 84% 4.3 mph N6.9 kmh N 7.6 mph12.2 kmh 29.95 in1014.2 mb 0.01 in0.3 mm 0.00 in0.0 mm 0.03 in0.8 mm
10:29 AM 29.3°F-1.5°C 25.3°F-3.7°C 85% 1.6 mph N2.6 kmh N 5.6 mph9.0 kmh 29.95 in1014.2 mb 0.01 in0.3 mm 0.00 in0.0 mm 0.03 in0.8 mm
10:34 AM 29.3°F-1.5°C 24.4°F-4.2°C 82% 4.7 mph NW7.6 kmh NW 10.7 mph17.2 kmh 29.95 in1014.2 mb 0.01 in0.3 mm 0.00 in0.0 mm 0.03 in0.8 mm
10:39 AM 29.3°F-1.5°C 24.3°F-4.3°C 81% 3.4 mph N5.5 kmh N 6.0 mph9.7 kmh 29.95 in1014.2 mb 0.01 in0.3 mm 0.00 in0.0 mm 0.03 in0.8 mm
10:44 AM 29.1°F-1.6°C 24.1°F-4.4°C 81% 2.9 mph W4.7 kmh W 4.9 mph7.9 kmh 29.96 in1014.6 mb 0.01 in0.3 mm 0.00 in0.0 mm 0.03 in0.8 mm
10:49 AM 29.1°F-1.6°C 24.1°F-4.4°C 81% 2.7 mph SW4.3 kmh SW 5.8 mph9.3 kmh 29.96 in1014.6 mb 0.01 in0.3 mm 0.00 in0.0 mm 0.03 in0.8 mm
10:54 AM 29.1°F-1.6°C 23.4°F-4.8°C 79% 4.3 mph WNW6.9 kmh WNW 11.0 mph17.7 kmh 29.96 in1014.6 mb 0.01 in0.3 mm 0.00 in0.0 mm 0.03 in0.8 mm
10:59 AM 29.3°F-1.5°C 23.9°F-4.5°C 80% 3.4 mph 5.5 kmh 6.7 mph10.8 kmh 29.96 in1014.6 mb 0.00 in0.0 mm 0.00 in0.0 mm 0.03 in0.8 mm
11:04 AM 29.1°F-1.6°C 23.4°F-4.8°C 79% 3.4 mph N5.5 kmh N 4.9 mph7.9 kmh 29.97 in1014.9 mb 0.00 in0.0 mm 0.00 in0.0 mm 0.03 in0.8 mm
11:09 AM 29.3°F-1.5°C 23.5°F-4.7°C 79% 2.7 mph WSW4.3 kmh WSW 5.4 mph8.7 kmh 29.97 in1014.9 mb 0.00 in0.0 mm 0.00 in0.0 mm 0.03 in0.8 mm
11:14 AM 29.1°F-1.6°C 22.8°F-5.1°C 77% 4.0 mph NNW6.4 kmh NNW 6.0 mph9.7 kmh 29.97 in1014.9 mb 0.00 in0.0 mm 0.00 in0.0 mm 0.03 in0.8 mm
11:19 AM 28.9°F-1.7°C 23.2°F-4.9°C 79% 3.1 mph N5.0 kmh N 5.6 mph9.0 kmh 29.98 in1015.2 mb 0.00 in0.0 mm 0.00 in0.0 mm 0.03 in0.8 mm
11:24 AM 28.9°F-1.7°C 23.2°F-4.9°C 79% 2.2 mph NNW3.5 kmh NNW 4.7 mph7.6 kmh 29.98 in1015.2 mb 0.00 in0.0 mm 0.00 in0.0 mm 0.03 in0.8 mm
11:29 AM 28.9°F-1.7°C 23.2°F-4.9°C 79% 2.7 mph NW4.3 kmh NW 7.6 mph12.2 kmh 29.98 in1015.2 mb 0.00 in0.0 mm 0.00 in0.0 mm 0.03 in0.8 mm
11:34 AM 28.9°F-1.7°C 23.2°F-4.9°C 79% 2.0 mph N3.2 kmh N 5.8 mph9.3 kmh 29.98 in1015.2 mb 0.00 in0.0 mm 0.00 in0.0 mm 0.03 in0.8 mm
11:39 AM 28.9°F-1.7°C 23.2°F-4.9°C 79% 5.4 mph NW8.7 kmh NW 11.9 mph19.2 kmh 29.98 in1015.2 mb 0.00 in0.0 mm 0.00 in0.0 mm 0.03 in0.8 mm
11:44 AM 28.8°F-1.8°C 22.1°F-5.5°C 76% 2.5 mph NNW4.0 kmh NNW 5.6 mph9.0 kmh 29.98 in1015.2 mb 0.00 in0.0 mm 0.00 in0.0 mm 0.03 in0.8 mm
11:49 AM 28.8°F-1.8°C 22.1°F-5.5°C 76% 3.4 mph NNW5.5 kmh NNW 9.6 mph15.4 kmh 29.98 in1015.2 mb 0.00 in0.0 mm 0.00 in0.0 mm 0.03 in0.8 mm
11:54 AM 28.8°F-1.8°C 22.5°F-5.3°C 77% 4.3 mph WSW6.9 kmh WSW 19.2 mph30.9 kmh 29.98 in1015.2 mb 0.00 in0.0 mm 0.00 in0.0 mm 0.03 in0.8 mm
11:59 AM 28.8°F-1.8°C 22.5°F-5.3°C 77% 3.1 mph N5.0 kmh N 5.8 mph9.3 kmh 29.98 in1015.2 mb 0.00 in0.0 mm 0.00 in0.0 mm 0.03 in0.8 mm
12:04 PM 28.8°F-1.8°C 23.0°F-5.0°C 79% 5.6 mph NNW9.0 kmh NNW 11.2 mph18.0 kmh 29.98 in1015.2 mb 0.00 in0.0 mm 0.00 in0.0 mm 0.03 in0.8 mm
12:09 PM 28.4°F-2.0°C 23.0°F-5.0°C 80% 4.0 mph W6.4 kmh W 7.2 mph11.6 kmh 29.98 in1015.2 mb 0.00 in0.0 mm 0.00 in0.0 mm 0.03 in0.8 mm
12:14 PM 28.4°F-2.0°C 22.6°F-5.2°C 79% 2.9 mph N4.7 kmh N 6.3 mph10.1 kmh 29.98 in1015.2 mb 0.00 in0.0 mm 0.00 in0.0 mm 0.03 in0.8 mm
12:19 PM 28.4°F-2.0°C 23.0°F-5.0°C 80% 2.0 mph NW3.2 kmh NW 6.0 mph9.7 kmh 29.98 in1015.2 mb 0.00 in0.0 mm 0.00 in0.0 mm 0.03 in0.8 mm
12:24 PM 28.4°F-2.0°C 22.6°F-5.2°C 79% 4.7 mph NNW7.6 kmh NNW 8.3 mph13.4 kmh 29.98 in1015.2 mb 0.00 in0.0 mm 0.00 in0.0 mm 0.03 in0.8 mm
12:29 PM 28.4°F-2.0°C 22.6°F-5.2°C 79% 3.6 mph NNW5.8 kmh NNW 7.6 mph12.2 kmh 29.98 in1015.2 mb 0.00 in0.0 mm 0.00 in0.0 mm 0.03 in0.8 mm
12:33 PM 28.4°F-2.0°C 22.6°F-5.2°C 79% 3.8 mph NNW6.1 kmh NNW 8.3 mph13.4 kmh 29.98 in1015.2 mb 0.00 in0.0 mm 0.00 in0.0 mm 0.03 in0.8 mm
12:38 PM 28.2°F-2.1°C 22.8°F-5.1°C 80% 4.0 mph NW6.4 kmh NW 9.2 mph14.8 kmh 29.98 in1015.2 mb 0.00 in0.0 mm 0.00 in0.0 mm 0.03 in0.8 mm
12:43 PM 28.0°F-2.2°C 22.6°F-5.2°C 80% 3.6 mph N5.8 kmh N 5.4 mph8.7 kmh 29.98 in1015.2 mb 0.00 in0.0 mm 0.00 in0.0 mm 0.03 in0.8 mm
12:48 PM 28.0°F-2.2°C 23.0°F-5.0°C 81% 3.1 mph N5.0 kmh N 6.3 mph10.1 kmh 29.97 in1014.9 mb 0.00 in0.0 mm 0.00 in0.0 mm 0.03 in0.8 mm
12:53 PM 27.9°F-2.3°C 22.8°F-5.1°C 81% 4.3 mph N6.9 kmh N 7.8 mph12.6 kmh 29.97 in1014.9 mb 0.00 in0.0 mm 0.00 in0.0 mm 0.03 in0.8 mm
12:58 PM 27.7°F-2.4°C 22.8°F-5.1°C 82% 3.8 mph NNW6.1 kmh NNW 8.5 mph13.7 kmh 29.97 in1014.9 mb 0.00 in0.0 mm 0.00 in0.0 mm 0.03 in0.8 mm
01:03 PM 27.7°F-2.4°C 23.5°F-4.7°C 84% 2.0 mph N3.2 kmh N 3.6 mph5.8 kmh 29.97 in1014.9 mb 0.00 in0.0 mm 0.00 in0.0 mm 0.03 in0.8 mm
01:08 PM 27.7°F-2.4°C 23.7°F-4.6°C 85% 1.8 mph NNE2.9 kmh NNE 2.7 mph4.3 kmh 29.97 in1014.9 mb 0.00 in0.0 mm 0.00 in0.0 mm 0.03 in0.8 mm
01:13 PM 27.5°F-2.5°C 23.9°F-4.5°C 86% 1.3 mph SSE2.1 kmh SSE 3.1 mph5.0 kmh 29.97 in1014.9 mb 0.00 in0.0 mm 0.00 in0.0 mm 0.03 in0.8 mm
01:18 PM 27.7°F-2.4°C 23.5°F-4.7°C 84% 2.5 mph N4.0 kmh N 5.6 mph9.0 kmh 29.97 in1014.9 mb 0.00 in0.0 mm 0.00 in0.0 mm 0.03 in0.8 mm
01:23 PM 27.5°F-2.5°C 22.6°F-5.2°C 82% 4.7 mph N7.6 kmh N 8.1 mph13.0 kmh 29.96 in1014.6 mb 0.00 in0.0 mm 0.00 in0.0 mm 0.03 in0.8 mm
01:28 PM 27.3°F-2.6°C 23.4°F-4.8°C 85% 4.0 mph N6.4 kmh N 6.9 mph11.1 kmh 29.97 in1014.9 mb 0.00 in0.0 mm 0.00 in0.0 mm 0.03 in0.8 mm
01:33 PM 27.1°F-2.7°C 24.3°F-4.3°C 89% 3.4 mph W5.5 kmh W 12.3 mph19.8 kmh 29.96 in1014.6 mb 0.00 in0.0 mm 0.00 in0.0 mm 0.03 in0.8 mm
01:38 PM 27.0°F-2.8°C 24.1°F-4.4°C 89% 3.6 mph N5.8 kmh N 5.6 mph9.0 kmh 29.97 in1014.9 mb 0.00 in0.0 mm 0.00 in0.0 mm 0.03 in0.8 mm
01:43 PM 27.0°F-2.8°C 24.1°F-4.4°C 89% 2.9 mph N4.7 kmh N 5.4 mph8.7 kmh 29.97 in1014.9 mb 0.00 in0.0 mm 0.00 in0.0 mm 0.03 in0.8 mm
01:48 PM 27.3°F-2.6°C 24.4°F-4.2°C 89% 4.9 mph N7.9 kmh N 8.7 mph14.0 kmh 29.97 in1014.9 mb 0.00 in0.0 mm 0.00 in0.0 mm 0.03 in0.8 mm
01:53 PM 27.0°F-2.8°C 24.1°F-4.4°C 89% 3.1 mph N5.0 kmh N 6.7 mph10.8 kmh 29.96 in1014.6 mb 0.00 in0.0 mm 0.00 in0.0 mm 0.03 in0.8 mm
01:58 PM 26.8°F-2.9°C 23.4°F-4.8°C 87% 3.1 mph N5.0 kmh N 4.5 mph7.2 kmh 29.97 in1014.9 mb 0.00 in0.0 mm 0.00 in0.0 mm 0.03 in0.8 mm
02:03 PM 26.8°F-2.9°C 23.2°F-4.9°C 86% 4.3 mph N6.9 kmh N 5.4 mph8.7 kmh 29.97 in1014.9 mb 0.00 in0.0 mm 0.00 in0.0 mm 0.03 in0.8 mm
02:08 PM 26.4°F-3.1°C 22.8°F-5.1°C 86% 2.5 mph N4.0 kmh N 6.9 mph11.1 kmh 29.97 in1014.9 mb 0.00 in0.0 mm 0.00 in0.0 mm 0.03 in0.8 mm
02:13 PM 26.2°F-3.2°C 23.4°F-4.8°C 89% 2.2 mph N3.5 kmh N 5.6 mph9.0 kmh 29.97 in1014.9 mb 0.00 in0.0 mm 0.00 in0.0 mm 0.03 in0.8 mm
02:18 PM 26.2°F-3.2°C 23.4°F-4.8°C 89% 2.9 mph N4.7 kmh N 4.5 mph7.2 kmh 29.98 in1015.2 mb 0.00 in0.0 mm 0.00 in0.0 mm 0.03 in0.8 mm
02:23 PM 26.1°F-3.3°C 23.2°F-4.9°C 89% 2.0 mph N3.2 kmh N 3.1 mph5.0 kmh 29.97 in1014.9 mb 0.00 in0.0 mm 0.00 in0.0 mm 0.03 in0.8 mm
02:28 PM 26.1°F-3.3°C 23.2°F-4.9°C 89% 2.5 mph N4.0 kmh N 6.0 mph9.7 kmh 29.97 in1014.9 mb 0.00 in0.0 mm 0.00 in0.0 mm 0.03 in0.8 mm
02:33 PM 25.7°F-3.5°C 22.8°F-5.1°C 89% 1.8 mph N2.9 kmh N 3.8 mph6.1 kmh 29.97 in1014.9 mb 0.00 in0.0 mm 0.00 in0.0 mm 0.03 in0.8 mm
02:38 PM 25.9°F-3.4°C 23.0°F-5.0°C 89% 2.0 mph N3.2 kmh N 4.0 mph6.4 kmh 29.98 in1015.2 mb 0.01 in0.3 mm 0.12 in3.0 mm 0.04 in1.0 mm
02:43 PM 25.9°F-3.4°C 23.4°F-4.8°C 90% 4.3 mph N6.9 kmh N 7.4 mph11.9 kmh 29.98 in1015.2 mb 0.01 in0.3 mm 0.00 in0.0 mm 0.04 in1.0 mm
02:48 PM 25.7°F-3.5°C 23.2°F-4.9°C 90% 4.3 mph N6.9 kmh N 5.8 mph9.3 kmh 29.98 in1015.2 mb 0.01 in0.3 mm 0.00 in0.0 mm 0.04 in1.0 mm
02:53 PM 25.7°F-3.5°C 23.4°F-4.8°C 91% 3.4 mph N5.5 kmh N 7.4 mph11.9 kmh 29.98 in1015.2 mb 0.01 in0.3 mm 0.00 in0.0 mm 0.04 in1.0 mm
02:58 PM 25.5°F-3.6°C 23.2°F-4.9°C 91% 3.6 mph N5.8 kmh N 5.6 mph9.0 kmh 29.98 in1015.2 mb 0.01 in0.3 mm 0.00 in0.0 mm 0.04 in1.0 mm
03:03 PM 25.7°F-3.5°C 23.4°F-4.8°C 91% 3.4 mph N5.5 kmh N 4.9 mph7.9 kmh 29.98 in1015.2 mb 0.01 in0.3 mm 0.00 in0.0 mm 0.04 in1.0 mm
03:08 PM 25.9°F-3.4°C 23.4°F-4.8°C 90% 6.0 mph N9.7 kmh N 7.8 mph12.6 kmh 29.99 in1015.6 mb 0.01 in0.3 mm 0.00 in0.0 mm 0.04 in1.0 mm
03:13 PM 25.9°F-3.4°C 23.0°F-5.0°C 89% 4.0 mph N6.4 kmh N 8.5 mph13.7 kmh 29.99 in1015.6 mb 0.01 in0.3 mm 0.00 in0.0 mm 0.04 in1.0 mm
03:18 PM 25.5°F-3.6°C 23.0°F-5.0°C 90% 2.7 mph N4.3 kmh N 6.7 mph10.8 kmh 29.99 in1015.6 mb 0.01 in0.3 mm 0.00 in0.0 mm 0.04 in1.0 mm
03:23 PM 25.3°F-3.7°C 23.0°F-5.0°C 91% 3.4 mph N5.5 kmh N 7.8 mph12.6 kmh 30.00 in1015.9 mb 0.01 in0.3 mm 0.00 in0.0 mm 0.04 in1.0 mm
03:28 PM 25.0°F-3.9°C 23.2°F-4.9°C 93% 3.6 mph N5.8 kmh N 7.6 mph12.2 kmh 30.00 in1015.9 mb 0.01 in0.3 mm 0.00 in0.0 mm 0.04 in1.0 mm
03:33 PM 25.0°F-3.9°C 22.6°F-5.2°C 91% 4.3 mph N6.9 kmh N 8.1 mph13.0 kmh 30.00 in1015.9 mb 0.01 in0.3 mm 0.00 in0.0 mm 0.04 in1.0 mm
03:38 PM 25.0°F-3.9°C 22.6°F-5.2°C 91% 2.0 mph N3.2 kmh N 3.4 mph5.5 kmh 30.00 in1015.9 mb 0.00 in0.0 mm 0.00 in0.0 mm 0.04 in1.0 mm
03:43 PM 25.2°F-3.8°C 22.5°F-5.3°C 89% 2.9 mph NNW4.7 kmh NNW 5.8 mph9.3 kmh 30.00 in1015.9 mb 0.00 in0.0 mm 0.00 in0.0 mm 0.04 in1.0 mm
03:48 PM 25.3°F-3.7°C 22.1°F-5.5°C 87% 4.9 mph N7.9 kmh N 9.4 mph15.1 kmh 30.00 in1015.9 mb 0.00 in0.0 mm 0.00 in0.0 mm 0.04 in1.0 mm
03:53 PM 25.5°F-3.6°C 21.4°F-5.9°C 84% 3.8 mph N6.1 kmh N 7.6 mph12.2 kmh 30.00 in1015.9 mb 0.00 in0.0 mm 0.00 in0.0 mm 0.04 in1.0 mm
03:58 PM 25.5°F-3.6°C 20.8°F-6.2°C 82% 2.7 mph N4.3 kmh N 3.8 mph6.1 kmh 30.01 in1016.3 mb 0.00 in0.0 mm 0.00 in0.0 mm 0.04 in1.0 mm
04:03 PM 25.5°F-3.6°C 19.9°F-6.7°C 79% 2.5 mph N4.0 kmh N 4.9 mph7.9 kmh 30.01 in1016.3 mb 0.00 in0.0 mm 0.00 in0.0 mm 0.04 in1.0 mm
04:08 PM 25.5°F-3.6°C 19.4°F-7.0°C 77% 5.1 mph N8.2 kmh N 9.2 mph14.8 kmh 30.01 in1016.3 mb 0.00 in0.0 mm 0.00 in0.0 mm 0.04 in1.0 mm
04:13 PM 25.5°F-3.6°C 19.0°F-7.2°C 76% 3.6 mph N5.8 kmh N 6.9 mph11.1 kmh 30.01 in1016.3 mb 0.00 in0.0 mm 0.00 in0.0 mm 0.04 in1.0 mm
04:18 PM 25.5°F-3.6°C 19.4°F-7.0°C 77% 2.7 mph N4.3 kmh N 4.9 mph7.9 kmh 30.01 in1016.3 mb 0.00 in0.0 mm 0.00 in0.0 mm 0.04 in1.0 mm
04:23 PM 25.5°F-3.6°C 19.0°F-7.2°C 76% 4.0 mph N6.4 kmh N 6.7 mph10.8 kmh 30.01 in1016.3 mb 0.00 in0.0 mm 0.00 in0.0 mm 0.04 in1.0 mm
04:28 PM 25.3°F-3.7°C 18.5°F-7.5°C 75% 4.3 mph N6.9 kmh N 6.3 mph10.1 kmh 30.01 in1016.3 mb 0.00 in0.0 mm 0.00 in0.0 mm 0.04 in1.0 mm
04:33 PM 25.3°F-3.7°C 18.5°F-7.5°C 75% 3.1 mph N5.0 kmh N 5.6 mph9.0 kmh 30.01 in1016.3 mb 0.00 in0.0 mm 0.00 in0.0 mm 0.04 in1.0 mm
04:38 PM 25.3°F-3.7°C 18.5°F-7.5°C 75% 2.2 mph N3.5 kmh N 4.0 mph6.4 kmh 30.01 in1016.3 mb 0.00 in0.0 mm 0.00 in0.0 mm 0.04 in1.0 mm
04:43 PM 25.2°F-3.8°C 17.4°F-8.1°C 72% 6.0 mph NNW9.7 kmh NNW 11.2 mph18.0 kmh 30.02 in1016.6 mb 0.00 in0.0 mm 0.00 in0.0 mm 0.04 in1.0 mm
04:48 PM 25.3°F-3.7°C 17.6°F-8.0°C 72% 4.0 mph NNE6.4 kmh NNE 7.2 mph11.6 kmh 30.02 in1016.6 mb 0.00 in0.0 mm 0.00 in0.0 mm 0.04 in1.0 mm
04:53 PM 25.3°F-3.7°C 17.6°F-8.0°C 72% 5.1 mph N8.2 kmh N 9.6 mph15.4 kmh 30.02 in1016.6 mb 0.00 in0.0 mm 0.00 in0.0 mm 0.04 in1.0 mm
04:58 PM 25.2°F-3.8°C 18.0°F-7.8°C 74% 4.7 mph N7.6 kmh N 7.8 mph12.6 kmh 30.02 in1016.6 mb 0.00 in0.0 mm 0.00 in0.0 mm 0.04 in1.0 mm
05:03 PM 25.2°F-3.8°C 17.4°F-8.1°C 72% 2.7 mph NW4.3 kmh NW 4.0 mph6.4 kmh 30.02 in1016.6 mb 0.00 in0.0 mm 0.00 in0.0 mm 0.04 in1.0 mm
05:08 PM 25.2°F-3.8°C 18.0°F-7.8°C 74% 2.9 mph N4.7 kmh N 6.3 mph10.1 kmh 30.03 in1016.9 mb 0.00 in0.0 mm 0.00 in0.0 mm 0.04 in1.0 mm
05:13 PM 25.2°F-3.8°C 17.1°F-8.3°C 71% 2.9 mph N4.7 kmh N 5.4 mph8.7 kmh 30.03 in1016.9 mb 0.00 in0.0 mm 0.00 in0.0 mm 0.04 in1.0 mm
05:18 PM 25.2°F-3.8°C 17.1°F-8.3°C 71% 2.5 mph N4.0 kmh N 4.9 mph7.9 kmh 30.03 in1016.9 mb 0.00 in0.0 mm 0.00 in0.0 mm 0.04 in1.0 mm
05:23 PM 25.0°F-3.9°C 17.8°F-7.9°C 74% 3.1 mph N5.0 kmh N 5.1 mph8.2 kmh 30.04 in1017.3 mb 0.00 in0.0 mm 0.00 in0.0 mm 0.04 in1.0 mm
05:28 PM 25.0°F-3.9°C 18.1°F-7.7°C 75% 2.5 mph N4.0 kmh N 4.0 mph6.4 kmh 30.04 in1017.3 mb 0.00 in0.0 mm 0.00 in0.0 mm 0.04 in1.0 mm
05:33 PM 24.6°F-4.1°C 17.8°F-7.9°C 75% 4.3 mph N6.9 kmh N 6.3 mph10.1 kmh 30.04 in1017.3 mb 0.00 in0.0 mm 0.00 in0.0 mm 0.04 in1.0 mm
05:38 PM 24.6°F-4.1°C 17.8°F-7.9°C 75% 1.8 mph NE2.9 kmh NE 3.4 mph5.5 kmh 30.04 in1017.3 mb 0.00 in0.0 mm 0.00 in0.0 mm 0.04 in1.0 mm
05:43 PM 24.8°F-4.0°C 17.6°F-8.0°C 74% 2.7 mph WNW4.3 kmh WNW 6.5 mph10.5 kmh 30.04 in1017.3 mb 0.00 in0.0 mm 0.00 in0.0 mm 0.04 in1.0 mm
05:48 PM 24.8°F-4.0°C 17.1°F-8.3°C 72% 2.7 mph NW4.3 kmh NW 4.5 mph7.2 kmh 30.04 in1017.3 mb 0.00 in0.0 mm 0.00 in0.0 mm 0.04 in1.0 mm
05:53 PM 24.8°F-4.0°C 17.1°F-8.3°C 72% 1.3 mph NNE2.1 kmh NNE 3.4 mph5.5 kmh 30.04 in1017.3 mb 0.00 in0.0 mm 0.00 in0.0 mm 0.04 in1.0 mm
05:58 PM 24.8°F-4.0°C 16.7°F-8.5°C 71% 2.9 mph N4.7 kmh N 4.7 mph7.6 kmh 30.04 in1017.3 mb 0.00 in0.0 mm 0.00 in0.0 mm 0.04 in1.0 mm
06:03 PM 24.8°F-4.0°C 17.1°F-8.3°C 72% 1.6 mph N2.6 kmh N 2.5 mph4.0 kmh 30.04 in1017.3 mb 0.00 in0.0 mm 0.00 in0.0 mm 0.04 in1.0 mm
06:08 PM 24.8°F-4.0°C 17.6°F-8.0°C 74% 2.2 mph N3.5 kmh N 5.1 mph8.2 kmh 30.04 in1017.3 mb 0.00 in0.0 mm 0.00 in0.0 mm 0.04 in1.0 mm
06:13 PM 24.8°F-4.0°C 17.6°F-8.0°C 74% 1.8 mph NNE2.9 kmh NNE 4.3 mph6.9 kmh 30.05 in1017.6 mb 0.00 in0.0 mm 0.00 in0.0 mm 0.04 in1.0 mm
06:18 PM 24.8°F-4.0°C 17.6°F-8.0°C 74% 1.8 mph N2.9 kmh N 3.6 mph5.8 kmh 30.05 in1017.6 mb 0.00 in0.0 mm 0.00 in0.0 mm 0.04 in1.0 mm
06:23 PM 24.8°F-4.0°C 17.6°F-8.0°C 74% 3.8 mph N6.1 kmh N 7.2 mph11.6 kmh 30.05 in1017.6 mb 0.00 in0.0 mm 0.00 in0.0 mm 0.04 in1.0 mm
06:28 PM 24.6°F-4.1°C 17.6°F-8.0°C 74% 3.6 mph N5.8 kmh N 6.5 mph10.5 kmh 30.05 in1017.6 mb 0.00 in0.0 mm 0.00 in0.0 mm 0.04 in1.0 mm
06:33 PM 24.6°F-4.1°C 17.8°F-7.9°C 75% 2.0 mph N3.2 kmh N 3.1 mph5.0 kmh 30.05 in1017.6 mb 0.00 in0.0 mm 0.00 in0.0 mm 0.04 in1.0 mm
06:38 PM 24.6°F-4.1°C 17.6°F-8.0°C 74% 2.0 mph NE3.2 kmh NE 2.9 mph4.7 kmh 30.06 in1017.9 mb 0.00 in0.0 mm 0.00 in0.0 mm 0.04 in1.0 mm
06:43 PM 24.6°F-4.1°C 16.9°F-8.4°C 72% 3.8 mph NNW6.1 kmh NNW 6.5 mph10.5 kmh 30.06 in1017.9 mb 0.00 in0.0 mm 0.00 in0.0 mm 0.04 in1.0 mm
06:48 PM 24.6°F-4.1°C 16.9°F-8.4°C 72% 3.1 mph NNE5.0 kmh NNE 7.6 mph12.2 kmh 30.06 in1017.9 mb 0.00 in0.0 mm 0.00 in0.0 mm 0.04 in1.0 mm
06:53 PM 24.6°F-4.1°C 16.9°F-8.4°C 72% 2.5 mph NNW4.0 kmh NNW 4.9 mph7.9 kmh 30.05 in1017.6 mb 0.00 in0.0 mm 0.00 in0.0 mm 0.04 in1.0 mm
06:58 PM 24.6°F-4.1°C 16.5°F-8.6°C 71% 3.8 mph NW6.1 kmh NW 6.0 mph9.7 kmh 30.06 in1017.9 mb 0.00 in0.0 mm 0.00 in0.0 mm 0.04 in1.0 mm
07:03 PM 24.8°F-4.0°C 16.3°F-8.7°C 70% 4.9 mph NNW7.9 kmh NNW 10.5 mph16.9 kmh 30.06 in1017.9 mb 0.00 in0.0 mm 0.00 in0.0 mm 0.04 in1.0 mm
07:08 PM 24.6°F-4.1°C 16.9°F-8.4°C 72% 3.6 mph NW5.8 kmh NW 9.4 mph15.1 kmh 30.06 in1017.9 mb 0.00 in0.0 mm 0.00 in0.0 mm 0.04 in1.0 mm
07:13 PM 24.4°F-4.2°C 17.4°F-8.1°C 74% 2.9 mph WNW4.7 kmh WNW 4.5 mph7.2 kmh 30.06 in1017.9 mb 0.00 in0.0 mm 0.00 in0.0 mm 0.04 in1.0 mm
07:18 PM 24.4°F-4.2°C 17.6°F-8.0°C 75% 3.6 mph N5.8 kmh N 7.6 mph12.2 kmh 30.06 in1017.9 mb 0.00 in0.0 mm 0.00 in0.0 mm 0.04 in1.0 mm
07:23 PM 24.3°F-4.3°C 17.4°F-8.1°C 75% 3.1 mph NW5.0 kmh NW 6.3 mph10.1 kmh 30.06 in1017.9 mb 0.00 in0.0 mm 0.00 in0.0 mm 0.04 in1.0 mm
07:28 PM 24.3°F-4.3°C 17.8°F-7.9°C 76% 2.0 mph NE3.2 kmh NE 3.8 mph6.1 kmh 30.06 in1017.9 mb 0.00 in0.0 mm 0.00 in0.0 mm 0.04 in1.0 mm
07:33 PM 24.3°F-4.3°C 17.8°F-7.9°C 76% 1.6 mph N2.6 kmh N 2.9 mph4.7 kmh 30.06 in1017.9 mb 0.00 in0.0 mm 0.00 in0.0 mm 0.04 in1.0 mm
07:38 PM 24.6°F-4.1°C 17.8°F-7.9°C 75% 1.6 mph N2.6 kmh N 2.7 mph4.3 kmh 30.06 in1017.9 mb 0.00 in0.0 mm 0.00 in0.0 mm 0.04 in1.0 mm
07:43 PM 24.8°F-4.0°C 17.6°F-8.0°C 74% 3.1 mph NE5.0 kmh NE 5.1 mph8.2 kmh 30.06 in1017.9 mb 0.00 in0.0 mm 0.00 in0.0 mm 0.04 in1.0 mm
07:48 PM 24.6°F-4.1°C 16.9°F-8.4°C 72% 2.7 mph N4.3 kmh N 4.7 mph7.6 kmh 30.07 in1018.3 mb 0.00 in0.0 mm 0.00 in0.0 mm 0.04 in1.0 mm
07:53 PM 24.6°F-4.1°C 17.6°F-8.0°C 74% 2.7 mph NNW4.3 kmh NNW 5.4 mph8.7 kmh 30.06 in1017.9 mb 0.00 in0.0 mm 0.00 in0.0 mm 0.04 in1.0 mm
07:58 PM 24.6°F-4.1°C 18.1°F-7.7°C 76% 3.4 mph N5.5 kmh N 6.3 mph10.1 kmh 30.06 in1017.9 mb 0.00 in0.0 mm 0.00 in0.0 mm 0.04 in1.0 mm
08:03 PM 24.6°F-4.1°C 17.6°F-8.0°C 74% 3.1 mph NNW5.0 kmh NNW 4.9 mph7.9 kmh 30.06 in1017.9 mb 0.00 in0.0 mm 0.00 in0.0 mm 0.04 in1.0 mm
08:08 PM 24.8°F-4.0°C 17.6°F-8.0°C 74% 3.1 mph N5.0 kmh N 5.1 mph8.2 kmh 30.06 in1017.9 mb 0.00 in0.0 mm 0.00 in0.0 mm 0.04 in1.0 mm
08:13 PM 24.6°F-4.1°C 17.6°F-8.0°C 74% 2.0 mph N3.2 kmh N 3.8 mph6.1 kmh 30.06 in1017.9 mb 0.00 in0.0 mm 0.00 in0.0 mm 0.04 in1.0 mm
08:19 PM 24.6°F-4.1°C 16.9°F-8.4°C 72% 2.0 mph NNW3.2 kmh NNW 5.4 mph8.7 kmh 30.06 in1017.9 mb 0.00 in0.0 mm 0.00 in0.0 mm 0.04 in1.0 mm
08:24 PM 24.8°F-4.0°C 16.7°F-8.5°C 71% 2.5 mph N4.0 kmh N 4.7 mph7.6 kmh 30.06 in1017.9 mb 0.00 in0.0 mm 0.00 in0.0 mm 0.04 in1.0 mm
08:29 PM 24.6°F-4.1°C 16.5°F-8.6°C 71% 4.3 mph N6.9 kmh N 12.3 mph19.8 kmh 30.06 in1017.9 mb 0.00 in0.0 mm 0.00 in0.0 mm 0.04 in1.0 mm
08:34 PM 24.6°F-4.1°C 16.5°F-8.6°C 71% 2.7 mph N4.3 kmh N 4.9 mph7.9 kmh 30.06 in1017.9 mb 0.00 in0.0 mm 0.00 in0.0 mm 0.04 in1.0 mm
08:39 PM 24.8°F-4.0°C 16.7°F-8.5°C 71% 3.1 mph N5.0 kmh N 6.3 mph10.1 kmh 30.06 in1017.9 mb 0.00 in0.0 mm 0.00 in0.0 mm 0.04 in1.0 mm
08:44 PM 24.6°F-4.1°C 16.9°F-8.4°C 72% 2.5 mph NNW4.0 kmh NNW 4.0 mph6.4 kmh 30.06 in1017.9 mb 0.00 in0.0 mm 0.00 in0.0 mm 0.04 in1.0 mm
08:49 PM 24.8°F-4.0°C 17.1°F-8.3°C 72% 2.0 mph NE3.2 kmh NE 4.3 mph6.9 kmh 30.06 in1017.9 mb 0.00 in0.0 mm 0.00 in0.0 mm 0.04 in1.0 mm
08:54 PM 24.8°F-4.0°C 17.1°F-8.3°C 72% 2.5 mph N4.0 kmh N 4.0 mph6.4 kmh 30.06 in1017.9 mb 0.00 in0.0 mm 0.00 in0.0 mm 0.04 in1.0 mm
08:59 PM 25.0°F-3.9°C 17.2°F-8.2°C 72% 3.4 mph N5.5 kmh N 5.4 mph8.7 kmh 30.07 in1018.3 mb 0.00 in0.0 mm 0.00 in0.0 mm 0.04 in1.0 mm
09:04 PM 25.0°F-3.9°C 17.2°F-8.2°C 72% 4.9 mph N7.9 kmh N 7.6 mph12.2 kmh 30.07 in1018.3 mb 0.00 in0.0 mm 0.00 in0.0 mm 0.04 in1.0 mm
09:09 PM 24.8°F-4.0°C 17.1°F-8.3°C 72% 3.1 mph N5.0 kmh N 6.3 mph10.1 kmh 30.07 in1018.3 mb 0.00 in0.0 mm 0.00 in0.0 mm 0.04 in1.0 mm
09:14 PM 25.0°F-3.9°C 17.8°F-7.9°C 74% 2.9 mph N4.7 kmh N 6.7 mph10.8 kmh 30.07 in1018.3 mb 0.00 in0.0 mm 0.00 in0.0 mm 0.04 in1.0 mm
09:19 PM 25.0°F-3.9°C 17.2°F-8.2°C 72% 2.7 mph NNW4.3 kmh NNW 6.0 mph9.7 kmh 30.07 in1018.3 mb 0.00 in0.0 mm 0.00 in0.0 mm 0.04 in1.0 mm
09:24 PM 24.6°F-4.1°C 17.6°F-8.0°C 74% 3.6 mph NW5.8 kmh NW 10.5 mph16.9 kmh 30.07 in1018.3 mb 0.00 in0.0 mm 0.00 in0.0 mm 0.04 in1.0 mm
09:29 PM 24.6°F-4.1°C 17.8°F-7.9°C 75% 2.2 mph NE3.5 kmh NE 3.6 mph5.8 kmh 30.07 in1018.3 mb 0.00 in0.0 mm 0.00 in0.0 mm 0.04 in1.0 mm
09:34 PM 24.6°F-4.1°C 17.8°F-7.9°C 75% 2.0 mph NNE3.2 kmh NNE 4.9 mph7.9 kmh 30.07 in1018.3 mb 0.00 in0.0 mm 0.00 in0.0 mm 0.04 in1.0 mm
09:39 PM 24.6°F-4.1°C 18.1°F-7.7°C 76% 3.6 mph N5.8 kmh N 4.9 mph7.9 kmh 30.07 in1018.3 mb 0.00 in0.0 mm 0.00 in0.0 mm 0.04 in1.0 mm
09:44 PM 24.4°F-4.2°C 17.6°F-8.0°C 75% 2.0 mph WNW3.2 kmh WNW 4.0 mph6.4 kmh 30.08 in1018.6 mb 0.00 in0.0 mm 0.00 in0.0 mm 0.04 in1.0 mm
09:49 PM 24.4°F-4.2°C 18.0°F-7.8°C 76% 2.7 mph N4.3 kmh N 4.9 mph7.9 kmh 30.08 in1018.6 mb 0.00 in0.0 mm 0.00 in0.0 mm 0.04 in1.0 mm
09:54 PM 24.4°F-4.2°C 18.0°F-7.8°C 76% 2.9 mph N4.7 kmh N 4.7 mph7.6 kmh 30.08 in1018.6 mb 0.00 in0.0 mm 0.00 in0.0 mm 0.04 in1.0 mm
09:59 PM 24.3°F-4.3°C 18.1°F-7.7°C 77% 4.9 mph N7.9 kmh N 8.1 mph13.0 kmh 30.08 in1018.6 mb 0.00 in0.0 mm 0.00 in0.0 mm 0.04 in1.0 mm
10:04 PM 24.1°F-4.4°C 18.9°F-7.3°C 80% 4.5 mph NNW7.2 kmh NNW 8.3 mph13.4 kmh 30.08 in1018.6 mb 0.00 in0.0 mm 0.00 in0.0 mm 0.04 in1.0 mm
10:09 PM 24.1°F-4.4°C 18.9°F-7.3°C 80% 2.5 mph N4.0 kmh N 5.1 mph8.2 kmh 30.08 in1018.6 mb 0.00 in0.0 mm 0.00 in0.0 mm 0.04 in1.0 mm
10:14 PM 24.1°F-4.4°C 18.5°F-7.5°C 79% 3.1 mph N5.0 kmh N 6.0 mph9.7 kmh 30.08 in1018.6 mb 0.00 in0.0 mm 0.00 in0.0 mm 0.04 in1.0 mm
10:19 PM 24.3°F-4.3°C 18.1°F-7.7°C 77% 2.7 mph N4.3 kmh N 5.1 mph8.2 kmh 30.08 in1018.6 mb 0.00 in0.0 mm 0.00 in0.0 mm 0.04 in1.0 mm
10:24 PM 24.3°F-4.3°C 18.1°F-7.7°C 77% 2.5 mph N4.0 kmh N 3.4 mph5.5 kmh 30.09 in1019.0 mb 0.00 in0.0 mm 0.00 in0.0 mm 0.04 in1.0 mm
10:29 PM 24.6°F-4.1°C 18.1°F-7.7°C 76% 2.2 mph N3.5 kmh N 4.0 mph6.4 kmh 30.08 in1018.6 mb 0.00 in0.0 mm 0.00 in0.0 mm 0.04 in1.0 mm
10:34 PM 24.6°F-4.1°C 18.1°F-7.7°C 76% 4.3 mph N6.9 kmh N 9.4 mph15.1 kmh 30.08 in1018.6 mb 0.00 in0.0 mm 0.00 in0.0 mm 0.04 in1.0 mm
10:39 PM 24.4°F-4.2°C 18.0°F-7.8°C 76% 2.7 mph NNE4.3 kmh NNE 4.5 mph7.2 kmh 30.09 in1019.0 mb 0.00 in0.0 mm 0.00 in0.0 mm 0.04 in1.0 mm
10:44 PM 24.4°F-4.2°C 18.0°F-7.8°C 76% 2.7 mph N4.3 kmh N 7.8 mph12.6 kmh 30.09 in1019.0 mb 0.00 in0.0 mm 0.00 in0.0 mm 0.04 in1.0 mm
10:49 PM 24.4°F-4.2°C 18.0°F-7.8°C 76% 3.1 mph N5.0 kmh N 6.5 mph10.5 kmh 30.09 in1019.0 mb 0.00 in0.0 mm 0.00 in0.0 mm 0.04 in1.0 mm
10:54 PM 24.4°F-4.2°C 18.3°F-7.6°C 77% 2.5 mph N4.0 kmh N 4.0 mph6.4 kmh 30.09 in1019.0 mb 0.00 in0.0 mm 0.00 in0.0 mm 0.04 in1.0 mm
10:59 PM 24.3°F-4.3°C 18.1°F-7.7°C 77% 1.3 mph W2.1 kmh W 2.7 mph4.3 kmh 30.09 in1019.0 mb 0.00 in0.0 mm 0.00 in0.0 mm 0.04 in1.0 mm
11:04 PM 24.4°F-4.2°C 18.3°F-7.6°C 77% 3.6 mph N5.8 kmh N 6.3 mph10.1 kmh 30.09 in1019.0 mb 0.00 in0.0 mm 0.00 in0.0 mm 0.04 in1.0 mm
11:09 PM 24.4°F-4.2°C 18.3°F-7.6°C 77% 1.6 mph N2.6 kmh N 4.0 mph6.4 kmh 30.09 in1019.0 mb 0.00 in0.0 mm 0.00 in0.0 mm 0.04 in1.0 mm
11:14 PM 24.4°F-4.2°C 18.3°F-7.6°C 77% 2.9 mph NNW4.7 kmh NNW 7.6 mph12.2 kmh 30.09 in1019.0 mb 0.00 in0.0 mm 0.00 in0.0 mm 0.04 in1.0 mm
11:19 PM 24.4°F-4.2°C 18.3°F-7.6°C 77% 4.0 mph NNW6.4 kmh NNW 6.5 mph10.5 kmh 30.09 in1019.0 mb 0.00 in0.0 mm 0.00 in0.0 mm 0.04 in1.0 mm
11:24 PM 24.4°F-4.2°C 18.0°F-7.8°C 76% 4.3 mph N6.9 kmh N 6.9 mph11.1 kmh 30.09 in1019.0 mb 0.00 in0.0 mm 0.00 in0.0 mm 0.04 in1.0 mm
11:29 PM 24.4°F-4.2°C 18.0°F-7.8°C 76% 3.6 mph N5.8 kmh N 6.7 mph10.8 kmh 30.09 in1019.0 mb 0.00 in0.0 mm 0.00 in0.0 mm 0.04 in1.0 mm
11:34 PM 24.4°F-4.2°C 18.0°F-7.8°C 76% 2.5 mph N4.0 kmh N 5.1 mph8.2 kmh 30.10 in1019.3 mb 0.00 in0.0 mm 0.00 in0.0 mm 0.04 in1.0 mm
11:39 PM 24.4°F-4.2°C 18.0°F-7.8°C 76% 2.9 mph N4.7 kmh N 4.9 mph7.9 kmh 30.09 in1019.0 mb 0.00 in0.0 mm 0.00 in0.0 mm 0.04 in1.0 mm
11:44 PM 24.4°F-4.2°C 18.0°F-7.8°C 76% 3.8 mph N6.1 kmh N 4.9 mph7.9 kmh 30.10 in1019.3 mb 0.00 in0.0 mm 0.00 in0.0 mm 0.04 in1.0 mm
11:49 PM 24.4°F-4.2°C 18.0°F-7.8°C 76% 3.1 mph N5.0 kmh N 5.4 mph8.7 kmh 30.10 in1019.3 mb 0.00 in0.0 mm 0.00 in0.0 mm 0.04 in1.0 mm
11:54 PM 24.4°F-4.2°C 18.0°F-7.8°C 76% 4.3 mph N6.9 kmh N 9.2 mph14.8 kmh 30.10 in1019.3 mb 0.00 in0.0 mm 0.00 in0.0 mm 0.04 in1.0 mm
11:59 PM 24.4°F-4.2°C 18.3°F-7.6°C 77% 2.5 mph N4.0 kmh N 6.7 mph10.8 kmh 30.10 in1019.3 mb 0.00 in0.0 mm 0.00 in0.0 mm 0.04 in1.0 mm